createdAt,value
2019-02-22T00:00:38.450Z,8.71
2019-02-22T00:03:40.419Z,8.72
2019-02-22T00:06:42.423Z,8.68
2019-02-22T00:09:49.506Z,8.68
2019-02-22T00:12:48.293Z,8.69
2019-02-22T00:15:50.348Z,8.69
2019-02-22T00:18:52.547Z,8.69
2019-02-22T00:21:54.503Z,8.69
2019-02-22T00:24:56.476Z,8.69
2019-02-22T00:27:58.476Z,8.69
2019-02-22T00:31:00.376Z,8.69
2019-02-22T00:34:02.370Z,8.71
2019-02-22T00:37:04.292Z,8.74
2019-02-22T00:40:06.281Z,8.78
2019-02-22T00:43:08.220Z,8.79
2019-02-22T00:46:10.145Z,8.83
2019-02-22T00:49:12.117Z,8.83
2019-02-22T00:52:14.041Z,8.82
2019-02-22T00:55:15.983Z,8.84
2019-02-22T00:58:17.937Z,8.85
2019-02-22T01:01:19.878Z,8.88
2019-02-22T01:04:21.919Z,8.94
2019-02-22T01:07:24.519Z,8.92
2019-02-22T01:10:31.152Z,8.91
2019-02-22T01:13:30.343Z,8.94
2019-02-22T01:16:32.304Z,8.98
2019-02-22T01:19:34.362Z,9.04
2019-02-22T01:22:36.518Z,9.00
2019-02-22T01:25:38.425Z,8.99
2019-02-22T01:28:40.374Z,8.95
2019-02-22T01:31:42.223Z,8.94
2019-02-22T01:34:44.160Z,8.97
2019-02-22T01:37:46.074Z,9.00
2019-02-22T01:40:47.985Z,9.01
2019-02-22T01:43:49.886Z,9.05
2019-02-22T01:46:51.750Z,9.03
2019-02-22T01:49:53.905Z,9.06
2019-02-22T01:52:55.859Z,9.08
2019-02-22T01:55:57.859Z,9.13
2019-02-22T01:59:00.311Z,9.12
2019-02-22T02:02:02.321Z,9.12
2019-02-22T02:05:05.611Z,9.12
2019-02-22T02:08:07.649Z,9.16
2019-02-22T02:11:09.546Z,9.19
2019-02-22T02:14:11.507Z,9.21
2019-02-22T02:17:13.514Z,9.22
2019-02-22T02:20:16.259Z,9.25
2019-02-22T02:23:18.259Z,9.20
2019-02-22T02:26:20.188Z,9.18
2019-02-22T02:29:22.192Z,9.19
2019-02-22T02:32:24.116Z,9.15
2019-02-22T02:35:26.101Z,9.11
2019-02-22T02:38:28.180Z,9.08
2019-02-22T02:41:30.186Z,9.11
2019-02-22T02:44:32.208Z,9.12
2019-02-22T02:47:34.144Z,9.11
2019-02-22T02:50:36.150Z,9.10
2019-02-22T02:53:38.075Z,9.08
2019-02-22T02:56:40.003Z,9.06
2019-02-22T02:59:41.980Z,9.00
2019-02-22T03:02:45.236Z,8.95
2019-02-22T03:05:51.912Z,8.91
2019-02-22T03:08:53.850Z,8.89
2019-02-22T03:11:55.884Z,8.82
2019-02-22T03:14:57.831Z,8.76
2019-02-22T03:17:59.838Z,8.75
2019-02-22T03:21:01.996Z,8.76
2019-02-22T03:24:03.942Z,8.74
2019-02-22T03:27:05.927Z,8.69
2019-02-22T03:30:09.781Z,8.51
2019-02-22T03:33:12.070Z,8.09
2019-02-22T03:36:14.024Z,7.58
2019-02-22T03:39:15.946Z,7.29
2019-02-22T03:42:17.985Z,7.07
2019-02-22T03:45:19.934Z,6.94
2019-02-22T03:48:21.855Z,6.86
2019-02-22T03:51:23.797Z,6.84
2019-02-22T03:54:25.909Z,6.74
2019-02-22T03:57:27.871Z,6.71
2019-02-22T04:00:29.875Z,6.65
2019-02-22T04:03:31.827Z,6.62
2019-02-22T04:06:33.837Z,6.56
2019-02-22T04:09:35.822Z,6.45
2019-02-22T04:12:37.791Z,6.40
2019-02-22T04:15:39.711Z,6.32
2019-02-22T04:18:41.641Z,6.31
2019-02-22T04:21:43.796Z,6.32
2019-02-22T04:24:45.759Z,6.24
2019-02-22T04:27:47.682Z,6.27
2019-02-22T04:30:49.586Z,6.26
2019-02-22T04:33:51.594Z,6.17
2019-02-22T04:36:53.512Z,6.07
2019-02-22T04:39:55.506Z,5.85
2019-02-22T04:42:57.479Z,5.81
2019-02-22T04:45:59.592Z,5.71
2019-02-22T04:49:01.597Z,5.58
2019-02-22T04:52:03.662Z,5.48
2019-02-22T04:55:05.676Z,5.37
2019-02-22T04:58:08.048Z,5.18
2019-02-22T05:01:09.997Z,5.02
2019-02-22T05:04:12.146Z,4.87
2019-02-22T05:07:14.108Z,4.67
2019-02-22T05:10:16.099Z,4.59
2019-02-22T05:13:18.129Z,4.55
2019-02-22T05:16:20.136Z,4.53
2019-02-22T05:19:22.121Z,4.43
2019-02-22T05:22:24.241Z,4.26
2019-02-22T05:25:26.227Z,4.03
2019-02-22T05:28:28.159Z,3.89
2019-02-22T05:31:30.066Z,3.82
2019-02-22T05:34:32.072Z,3.66
2019-02-22T05:37:34.056Z,3.60
2019-02-22T05:40:36.030Z,3.50
2019-02-22T05:43:38.020Z,3.48
2019-02-22T05:46:41.437Z,3.45
2019-02-22T05:49:43.391Z,3.28
2019-02-22T05:52:45.544Z,3.21
2019-02-22T05:55:47.493Z,3.09
2019-02-22T05:58:49.420Z,3.01
2019-02-22T06:01:51.349Z,2.96
2019-02-22T06:04:53.269Z,2.87
2019-02-22T06:07:55.164Z,2.78
2019-02-22T06:10:57.037Z,2.72
2019-02-22T06:13:59.054Z,2.68
2019-02-22T06:17:01.006Z,2.62
2019-02-22T06:20:09.081Z,2.59
2019-02-22T06:23:11.158Z,2.61
2019-02-22T06:26:13.122Z,2.65
2019-02-22T06:29:15.044Z,2.64
2019-02-22T06:32:16.964Z,2.62
2019-02-22T06:35:18.875Z,2.56
2019-02-22T06:38:20.830Z,2.48
2019-02-22T06:41:22.729Z,2.28
2019-02-22T06:44:24.713Z,2.12
2019-02-22T06:47:28.405Z,2.06
2019-02-22T06:53:34.466Z,2.00
2019-02-22T06:56:36.492Z,1.92
2019-02-22T06:59:38.388Z,1.91
2019-02-22T07:02:40.385Z,1.85
2019-02-22T07:05:42.321Z,1.87
2019-02-22T07:08:44.328Z,1.89
2019-02-22T07:11:50.558Z,1.77
2019-02-22T07:14:52.519Z,1.68
2019-02-22T07:17:54.506Z,1.62
2019-02-22T07:20:56.439Z,1.58
2019-02-22T07:23:58.646Z,1.58
2019-02-22T07:27:00.568Z,1.56
2019-02-22T07:30:04.272Z,1.58
2019-02-22T07:33:06.191Z,1.52
2019-02-22T07:36:08.170Z,1.49
2019-02-22T07:39:10.131Z,1.52
2019-02-22T07:42:12.103Z,1.54
2019-02-22T07:45:14.039Z,1.47
2019-02-22T07:48:16.125Z,1.40
2019-02-22T07:51:18.201Z,1.34
2019-02-22T07:54:20.243Z,1.32
2019-02-22T07:57:22.202Z,1.30
2019-02-22T08:00:24.677Z,1.61
2019-02-22T08:03:26.560Z,1.81
2019-02-22T08:06:28.525Z,1.91
2019-02-22T08:09:30.444Z,1.96
2019-02-22T08:12:32.503Z,1.95
2019-02-22T08:15:35.397Z,1.87
2019-02-22T08:18:37.871Z,1.81
2019-02-22T08:21:39.862Z,1.76
2019-02-22T08:24:42.029Z,1.73
2019-02-22T08:27:53.150Z,1.74
2019-02-22T08:30:47.898Z,1.62
2019-02-22T08:33:49.844Z,1.80
2019-02-22T08:36:51.885Z,1.93
2019-02-22T08:39:58.520Z,1.84
2019-02-22T08:42:59.079Z,2.14
2019-02-22T08:46:01.054Z,2.74
2019-02-22T08:49:03.564Z,2.93
2019-02-22T08:52:05.728Z,2.84
2019-02-22T08:55:07.746Z,2.46
2019-02-22T08:58:09.811Z,2.19
2019-02-22T09:01:11.708Z,2.00
2019-02-22T09:04:13.718Z,1.96
2019-02-22T09:07:15.634Z,1.75
2019-02-22T09:10:17.513Z,1.55
2019-02-22T09:13:19.478Z,1.64
2019-02-22T09:16:21.427Z,1.79
2019-02-22T09:19:23.407Z,1.87
2019-02-22T09:22:25.306Z,1.91
2019-02-22T09:25:27.510Z,2.01
2019-02-22T09:28:29.489Z,2.35
2019-02-22T09:31:31.439Z,2.44
2019-02-22T09:34:33.397Z,2.48
2019-02-22T09:37:35.356Z,2.57
2019-02-22T09:40:37.323Z,2.42
2019-02-22T09:43:39.334Z,2.27
2019-02-22T09:46:41.273Z,2.37
2019-02-22T09:49:43.664Z,2.46
2019-02-22T09:52:45.544Z,2.54
2019-02-22T09:55:47.554Z,2.73
2019-02-22T09:58:50.361Z,2.85
2019-02-22T10:01:52.318Z,2.74
2019-02-22T10:04:55.605Z,2.55
2019-02-22T10:07:57.975Z,2.36
2019-02-22T10:10:59.939Z,2.17
2019-02-22T10:14:06.628Z,2.10
2019-02-22T10:17:05.799Z,2.11
2019-02-22T10:20:10.888Z,2.07
2019-02-22T10:23:12.840Z,1.96
2019-02-22T10:26:15.005Z,1.97
2019-02-22T10:29:16.962Z,1.99
2019-02-22T10:32:18.899Z,1.95
2019-02-22T10:35:20.889Z,1.94
2019-02-22T10:38:22.866Z,1.98
2019-02-22T10:41:24.838Z,2.12
2019-02-22T10:44:26.785Z,2.17
2019-02-22T10:47:28.740Z,2.09
2019-02-22T10:50:31.601Z,2.12
2019-02-22T10:53:33.528Z,2.22
2019-02-22T10:56:35.638Z,2.29
2019-02-22T10:59:37.596Z,2.19
2019-02-22T11:02:39.642Z,2.18
2019-02-22T11:05:41.601Z,2.21
2019-02-22T11:08:43.514Z,2.24
2019-02-22T11:11:45.495Z,2.27
2019-02-22T11:14:47.456Z,2.24
2019-02-22T11:17:49.376Z,2.24
2019-02-22T11:20:51.384Z,2.32
2019-02-22T11:23:53.292Z,2.35
2019-02-22T11:26:55.579Z,2.32
2019-02-22T11:29:57.579Z,2.42
2019-02-22T11:32:59.516Z,2.50
2019-02-22T11:36:01.474Z,2.55
2019-02-22T11:39:05.528Z,2.50
2019-02-22T11:42:08.787Z,2.57
2019-02-22T11:45:11.024Z,2.72
2019-02-22T11:48:12.942Z,2.68
2019-02-22T11:51:15.898Z,2.64
2019-02-22T11:54:17.804Z,2.56
2019-02-22T11:57:20.207Z,2.43
2019-02-22T12:00:26.092Z,2.48
2019-02-22T12:03:28.106Z,2.51
2019-02-22T12:06:30.058Z,2.55
2019-02-22T12:09:31.962Z,2.62
2019-02-22T12:12:33.874Z,2.61
2019-02-22T12:15:35.834Z,2.53
2019-02-22T12:18:38.104Z,2.43
2019-02-22T12:21:40.062Z,2.41
2019-02-22T12:24:42.024Z,2.36
2019-02-22T12:27:44.034Z,2.44
2019-02-22T12:30:45.980Z,2.59
2019-02-22T12:33:48.208Z,2.66
2019-02-22T12:36:50.388Z,2.66
2019-02-22T12:39:52.413Z,2.67
2019-02-22T12:42:54.358Z,2.57
2019-02-22T12:45:56.404Z,2.61
2019-02-22T12:48:58.328Z,2.56
2019-02-22T12:52:00.713Z,2.50
2019-02-22T12:55:04.769Z,2.55
2019-02-22T12:58:06.830Z,2.56
2019-02-22T13:01:08.716Z,2.56
2019-02-22T13:04:10.732Z,2.55
2019-02-22T13:07:13.830Z,2.56
2019-02-22T13:10:16.258Z,2.45
2019-02-22T13:13:18.252Z,2.48
2019-02-22T13:16:20.281Z,2.43
2019-02-22T13:19:22.280Z,2.36
2019-02-22T13:22:24.306Z,2.34
2019-02-22T13:25:26.238Z,2.36
2019-02-22T13:28:28.401Z,2.36
2019-02-22T13:31:30.567Z,2.30
2019-02-22T13:34:32.543Z,2.27
2019-02-22T13:37:34.497Z,2.22
2019-02-22T13:40:36.498Z,2.14
2019-02-22T13:43:38.443Z,2.12
2019-02-22T13:46:40.449Z,2.18
2019-02-22T13:49:42.496Z,2.20
2019-02-22T13:52:45.281Z,2.17
2019-02-22T13:55:47.436Z,2.16
2019-02-22T13:58:49.543Z,2.17
2019-02-22T14:01:52.975Z,2.13
2019-02-22T14:04:55.574Z,2.06
2019-02-22T14:07:57.562Z,2.08
2019-02-22T14:10:59.591Z,2.09
2019-02-22T14:14:01.683Z,2.00
2019-02-22T14:17:03.847Z,1.97
2019-02-22T14:20:07.089Z,1.96
2019-02-22T14:23:09.155Z,1.82
2019-02-22T14:26:11.126Z,1.81
2019-02-22T14:29:13.334Z,1.81
2019-02-22T14:32:15.301Z,1.79
2019-02-22T14:35:17.444Z,1.71
2019-02-22T14:38:19.489Z,1.66
2019-02-22T14:41:21.579Z,1.62
2019-02-22T14:44:23.758Z,1.61
2019-02-22T14:47:25.919Z,1.60
2019-02-22T14:50:27.874Z,1.60
2019-02-22T14:53:30.432Z,1.53
2019-02-22T14:56:32.447Z,1.45
2019-02-22T14:59:34.597Z,1.51
2019-02-22T15:02:36.763Z,1.49
2019-02-22T15:05:38.863Z,1.33
2019-02-22T15:08:40.838Z,1.28
2019-02-22T15:11:43.836Z,1.26
2019-02-22T15:14:45.969Z,1.22
2019-02-22T15:17:49.725Z,1.22
2019-02-22T15:20:51.843Z,1.16
2019-02-22T15:23:53.999Z,1.11
2019-02-22T15:26:56.063Z,1.08
2019-02-22T15:29:58.354Z,1.04
2019-02-22T15:33:00.362Z,0.95
2019-02-22T15:36:02.491Z,0.92
2019-02-22T15:39:05.110Z,0.84
2019-02-22T15:42:08.965Z,0.80
2019-02-22T15:45:16.457Z,0.79
2019-02-22T15:48:18.475Z,0.76
2019-02-22T15:51:20.489Z,0.62
2019-02-22T15:54:22.425Z,0.57
2019-02-22T15:57:25.202Z,0.51
2019-02-22T16:00:32.503Z,0.44
2019-02-22T16:03:39.226Z,0.37
2019-02-22T16:06:41.288Z,0.27
2019-02-22T16:09:43.459Z,0.17
2019-02-22T16:12:45.776Z,0.17
2019-02-22T16:15:48.566Z,-0.02
2019-02-22T16:18:50.565Z,0.04
2019-02-22T16:21:52.581Z,-0.02
2019-02-22T16:24:54.963Z,-0.07
2019-02-22T16:27:56.870Z,-0.15
2019-02-22T16:31:00.103Z,-0.22
2019-02-22T16:34:02.068Z,-0.28
2019-02-22T16:37:04.034Z,-0.34
2019-02-22T16:40:08.832Z,-0.43
2019-02-22T16:43:12.652Z,-0.50
2019-02-22T16:46:15.134Z,-0.54
2019-02-22T16:49:17.336Z,-0.57
2019-02-22T16:52:19.304Z,-0.62
2019-02-22T16:55:23.351Z,-0.66
2019-02-22T16:58:25.490Z,-0.71
2019-02-22T17:01:28.217Z,-0.76
2019-02-22T17:04:30.239Z,-0.81
2019-02-22T17:07:33.095Z,-0.85
2019-02-22T17:10:37.015Z,-0.87
2019-02-22T17:13:39.953Z,-0.89
2019-02-22T17:16:46.078Z,-0.92
2019-02-22T17:19:47.320Z,-0.96
2019-02-22T17:22:51.225Z,-0.98
2019-02-22T17:25:53.145Z,-1.02
2019-02-22T17:28:55.165Z,-1.04
2019-02-22T17:31:57.334Z,-1.08
2019-02-22T17:35:01.250Z,-1.12
2019-02-22T17:38:03.808Z,-1.16
2019-02-22T17:41:06.191Z,-1.19
2019-02-22T17:44:08.165Z,-1.22
2019-02-22T17:47:12.642Z,-1.25
2019-02-22T17:50:14.880Z,-1.28
2019-02-22T17:53:16.957Z,-1.31
2019-02-22T17:56:18.956Z,-1.38
2019-02-22T17:59:20.854Z,-1.39
2019-02-22T18:02:24.704Z,-1.45
2019-02-22T18:05:28.077Z,-1.47
2019-02-22T18:08:30.845Z,-1.51
2019-02-22T18:11:32.789Z,-1.55
2019-02-22T18:14:34.809Z,-1.54
2019-02-22T18:17:36.768Z,-1.57
2019-02-22T18:20:39.022Z,-1.59
2019-02-22T18:23:41.201Z,-1.62
2019-02-22T18:26:45.984Z,-1.68
2019-02-22T18:29:48.212Z,-1.75
2019-02-22T18:32:50.567Z,-1.79
2019-02-22T18:35:52.947Z,-1.82
2019-02-22T18:38:56.834Z,-1.82
2019-02-22T18:41:59.118Z,-1.86
2019-02-22T18:45:03.166Z,-1.87
2019-02-22T18:48:06.138Z,-1.88
2019-02-22T18:51:09.960Z,-1.92
2019-02-22T18:54:12.333Z,-1.95
2019-02-22T18:57:14.347Z,-1.96
2019-02-22T19:00:20.298Z,-2.01
2019-02-22T19:03:25.087Z,-2.03
2019-02-22T19:06:27.067Z,-2.05
2019-02-22T19:09:29.049Z,-2.08
2019-02-22T19:12:32.422Z,-2.09
2019-02-22T19:15:35.616Z,-2.14
2019-02-22T19:18:40.971Z,-2.20
2019-02-22T19:21:43.283Z,-2.25
2019-02-22T19:24:45.266Z,-2.31
2019-02-22T19:27:47.250Z,-2.33
2019-02-22T19:30:49.201Z,-2.37
2019-02-22T19:33:51.321Z,-2.36
2019-02-22T19:36:55.772Z,-2.38
2019-02-22T19:40:01.910Z,-2.41
2019-02-22T19:43:06.259Z,-2.44
2019-02-22T19:46:08.199Z,-2.50
2019-02-22T19:49:10.157Z,-2.51
2019-02-22T19:52:12.750Z,-2.54
2019-02-22T19:55:19.106Z,-2.57
2019-02-22T19:58:26.703Z,-2.60
2019-02-22T20:01:29.363Z,-2.59
2019-02-22T20:04:31.406Z,-2.62
2019-02-22T20:07:34.043Z,-2.65
2019-02-22T20:10:41.525Z,-2.70
2019-02-22T20:13:44.881Z,-2.67
2019-02-22T20:16:48.639Z,-2.71
2019-02-22T20:19:52.578Z,-2.78
2019-02-22T20:22:54.535Z,-2.79
2019-02-22T20:25:58.576Z,-2.82
2019-02-22T20:29:00.460Z,-2.83
2019-02-22T20:32:02.747Z,-2.86
2019-02-22T20:35:09.485Z,-2.88
2019-02-22T20:38:11.639Z,-2.92
2019-02-22T20:41:13.576Z,-2.95
2019-02-22T20:44:15.564Z,-2.95
2019-02-22T20:47:17.564Z,-2.99
2019-02-22T20:50:23.158Z,-3.01
2019-02-22T20:53:25.809Z,-3.03
2019-02-22T20:56:29.217Z,-3.06
2019-02-22T20:59:32.441Z,-3.08
2019-02-22T21:02:34.435Z,-3.10
2019-02-22T21:05:36.412Z,-3.16
2019-02-22T21:08:38.409Z,-3.20
2019-02-22T21:11:40.454Z,-3.23
2019-02-22T21:14:44.322Z,-3.27
2019-02-22T21:17:48.270Z,-3.29
2019-02-22T21:20:50.258Z,-3.33
2019-02-22T21:23:52.183Z,-3.35
2019-02-22T21:26:54.123Z,-3.37
2019-02-22T21:29:58.995Z,-3.40
2019-02-22T21:33:05.170Z,-3.42
2019-02-22T21:36:07.904Z,-3.44
2019-02-22T21:39:09.918Z,-3.43
2019-02-22T21:42:19.838Z,-3.44
2019-02-22T21:45:16.365Z,-3.46
2019-02-22T21:48:27.279Z,-3.47
2019-02-22T21:51:22.717Z,-3.49
2019-02-22T21:54:24.647Z,-3.50
2019-02-22T21:57:26.636Z,-3.51
2019-02-22T22:00:29.518Z,-3.56
2019-02-22T22:03:31.517Z,-3.59
2019-02-22T22:06:33.523Z,-3.64
2019-02-22T22:09:40.490Z,-3.64
2019-02-22T22:12:44.023Z,-3.66
2019-02-22T22:15:46.082Z,-3.63
2019-02-22T22:18:48.083Z,-3.63
2019-02-22T22:21:50.004Z,-3.64
2019-02-22T22:24:52.038Z,-3.65
2019-02-22T22:27:54.539Z,-3.69
2019-02-22T22:30:56.444Z,-3.73
2019-02-22T22:33:58.398Z,-3.77
2019-02-22T22:37:00.429Z,-3.82
2019-02-22T22:40:02.569Z,-3.86
2019-02-22T22:43:04.564Z,-3.88
2019-02-22T22:46:06.550Z,-3.91
2019-02-22T22:49:08.570Z,-3.96
2019-02-22T22:52:10.530Z,-3.96
2019-02-22T22:55:12.523Z,-4.01
2019-02-22T22:58:14.484Z,-3.98
2019-02-22T23:01:17.270Z,-4.01
2019-02-22T23:04:19.475Z,-3.97
2019-02-22T23:07:21.452Z,-3.98
2019-02-22T23:10:23.387Z,-3.99
2019-02-22T23:13:25.458Z,-4.01
2019-02-22T23:16:27.577Z,-4.04
2019-02-22T23:19:29.503Z,-4.04
2019-02-22T23:22:31.462Z,-4.07
2019-02-22T23:25:33.384Z,-4.07
2019-02-22T23:28:35.358Z,-4.07
2019-02-22T23:31:37.350Z,-4.08
2019-02-22T23:34:39.281Z,-4.10
2019-02-22T23:37:41.249Z,-4.10
2019-02-22T23:40:43.260Z,-4.11
2019-02-22T23:43:45.183Z,-4.13
2019-02-22T23:46:47.140Z,-4.18
2019-02-22T23:49:49.386Z,-4.22
2019-02-22T23:52:51.292Z,-4.26
2019-02-22T23:55:53.171Z,-4.30
2019-02-22T23:58:55.149Z,-4.32
